Time;durP1;ratioP1;P1;durP2;ratioP2;P2;SDS_P1;SDS_P2;PMS_P1;PMS_P2;Temp;Humidity;BMP_temperature;BMP_pressure;BME280_temperature;BME280_humidity;BME280_pressure;Samples;Min_cycle;Max_cycle;Signal;HPM_P1;HPM_P2
2022/01/08 00:01:45;;;;;;;;;;;1.00;99.90;;;;;;5038662;28;20365;-86
2022/01/08 00:04:10;;;;;;;;;;;1.10;99.90;;;;;;5037741;28;20266;-88
2022/01/08 00:06:38;;;;;;;;;;;1.00;99.90;;;;;;5038664;28;20361;-87
2022/01/08 00:09:04;;;;;;;;;;;1.00;99.90;;;;;;5037070;28;19912;-87
2022/01/08 00:11:29;;;;;;;;;;;1.00;99.90;;;;;;5038637;28;19966;-86
2022/01/08 00:13:55;;;;;;;;;;;1.00;99.90;;;;;;5053477;28;19935;-87
2022/01/08 00:16:20;;;;;;;;;;;1.60;99.90;;;;;;5035279;28;19919;-86
2022/01/08 00:18:46;;;;;;;;;;;1.70;99.90;;;;;;5052387;28;19912;-87
2022/01/08 00:21:11;;;;;;;;;;;1.30;99.90;;;;;;5041578;28;19920;-87
2022/01/08 00:23:37;;;;;;;;;;;1.10;99.90;;;;;;5050130;28;19955;-87
2022/01/08 00:26:04;;;;;;;;;;;1.10;99.90;;;;;;5038224;28;20330;-87
2022/01/08 00:28:30;;;;;;;;;;;1.00;99.90;;;;;;5052795;28;19909;-87
2022/01/08 00:30:55;;;;;;;;;;;1.00;99.90;;;;;;5051239;28;19916;-87
2022/01/08 00:33:21;;;;;;;;;;;0.90;99.90;;;;;;5055600;28;20027;-86
2022/01/08 00:35:46;;;;;;;;;;;0.90;99.90;;;;;;5038024;28;19959;-88
2022/01/08 00:38:12;;;;;;;;;;;0.90;99.90;;;;;;5046386;28;19920;-87
2022/01/08 00:40:37;;;;;;;;;;;0.90;99.90;;;;;;5037815;28;19918;-86
2022/01/08 00:43:03;;;;;;;;;;;0.90;99.90;;;;;;5038886;28;19920;-86
2022/01/08 00:45:28;;;;;;;;;;;0.90;99.90;;;;;;5053313;28;20001;-87
2022/01/08 00:47:54;;;;;;;;;;;0.90;99.90;;;;;;5039263;28;19912;-87
2022/01/08 00:50:19;;;;;;;;;;;0.80;99.90;;;;;;5039165;28;19961;-86
2022/01/08 00:52:45;;;;;;;;;;;0.80;99.90;;;;;;5057857;28;19913;-86
2022/01/08 00:55:11;;;;;;;;;;;0.90;99.90;;;;;;5036557;28;19919;-87
2022/01/08 00:57:37;;;;;;;;;;;0.90;99.90;;;;;;5039764;28;19913;-87
2022/01/08 01:00:07;;;;;;;;;;;0.90;99.90;;;;;;5053888;28;20370;-86
2022/01/08 01:02:35;;;;;;;;;;;1.00;99.90;;;;;;5035735;28;19913;-86
2022/01/08 01:05:01;;;;;;;;;;;1.00;99.90;;;;;;5057228;28;19912;-86
2022/01/08 01:07:27;;;;;;;;;;;1.00;99.90;;;;;;5037817;28;19909;-87
2022/01/08 01:09:52;;;;;;;;;;;1.00;99.90;;;;;;5055901;28;19912;-87
2022/01/08 01:12:17;;;;;;;;;;;1.00;99.90;;;;;;5050983;28;19939;-87
2022/01/08 01:14:43;;;;;;;;;;;1.00;99.90;;;;;;5054334;28;19912;-87
2022/01/08 01:17:08;;;;;;;;;;;1.10;99.90;;;;;;5039100;28;20006;-86
2022/01/08 01:19:35;;;;;;;;;;;1.00;99.90;;;;;;5038638;28;20383;-86
2022/01/08 01:22:01;;;;;;;;;;;1.00;99.90;;;;;;5040174;28;19912;-86
2022/01/08 01:24:28;;;;;;;;;;;1.10;99.90;;;;;;5054889;28;19919;-86
2022/01/08 01:29:52;;;;;;;;;;;1.10;99.90;;;;;;5055584;28;19912;-86
2022/01/08 01:43:28;;;;;;;;;;;1.00;99.90;;;;;;5053342;28;20695;-87
2022/01/08 01:48:37;;;;;;;;;;;1.10;99.90;;;;;;5053230;28;20028;-87
2022/01/08 01:51:04;;;;;;;;;;;1.10;99.90;;;;;;5051397;28;19912;-86
2022/01/08 01:53:29;;;;;;;;;;;1.10;99.90;;;;;;5034833;28;19988;-88
2022/01/08 01:55:55;;;;;;;;;;;1.10;99.90;;;;;;5036867;28;20389;-87
2022/01/08 01:58:20;;;;;;;;;;;1.10;99.90;;;;;;5052629;28;19962;-87
2022/01/08 02:00:48;;;;;;;;;;;1.10;99.90;;;;;;5037264;28;19920;-87
2022/01/08 02:03:13;;;;;;;;;;;1.10;99.90;;;;;;5054892;28;19922;-87
2022/01/08 02:05:39;;;;;;;;;;;1.10;99.90;;;;;;5037914;28;20421;-88
2022/01/08 02:08:04;;;;;;;;;;;1.10;99.90;;;;;;5036209;28;19908;-85
2022/01/08 02:10:30;;;;;;;;;;;1.10;99.90;;;;;;5036792;28;19970;-87
2022/01/08 02:12:55;;;;;;;;;;;1.10;99.90;;;;;;5052346;28;19913;-87
2022/01/08 02:15:21;;;;;;;;;;;1.10;99.90;;;;;;5036242;28;19916;-87
2022/01/08 02:17:47;;;;;;;;;;;1.10;99.90;;;;;;5038910;28;19999;-89
2022/01/08 02:20:13;;;;;;;;;;;1.10;99.90;;;;;;5039109;28;19921;-87
2022/01/08 02:22:38;;;;;;;;;;;1.00;99.90;;;;;;5054136;28;20338;-87
2022/01/08 02:25:07;;;;;;;;;;;1.00;99.90;;;;;;5037394;28;19912;-85
2022/01/08 02:27:32;;;;;;;;;;;1.00;99.90;;;;;;5051442;28;20005;-87
2022/01/08 02:29:58;;;;;;;;;;;1.00;99.90;;;;;;5053068;28;20439;-86
2022/01/08 02:32:30;;;;;;;;;;;1.00;99.90;;;;;;5036297;28;21184;-87
2022/01/08 02:34:55;;;;;;;;;;;1.00;99.90;;;;;;5053554;28;20336;-87
2022/01/08 02:37:30;;;;;;;;;;;1.10;99.90;;;;;;5036945;28;19919;-87
2022/01/08 02:39:56;;;;;;;;;;;1.10;99.90;;;;;;5051698;28;20390;-86
2022/01/08 02:42:24;;;;;;;;;;;1.20;99.90;;;;;;5033726;28;19908;-87
2022/01/08 02:44:49;;;;;;;;;;;1.20;99.90;;;;;;5037373;28;19912;-87
2022/01/08 02:47:16;;;;;;;;;;;1.20;99.90;;;;;;5035407;28;19919;-86
2022/01/08 02:49:42;;;;;;;;;;;1.20;99.90;;;;;;5038081;28;20253;-87
2022/01/08 02:52:08;;;;;;;;;;;1.20;99.90;;;;;;5053353;28;19919;-87
2022/01/08 02:54:33;;;;;;;;;;;1.20;99.90;;;;;;5052815;28;19909;-86
2022/01/08 02:56:59;;;;;;;;;;;1.30;99.90;;;;;;5035071;28;19909;-86
2022/01/08 02:59:24;;;;;;;;;;;1.20;99.90;;;;;;5036976;28;19913;-86
2022/01/08 03:01:50;;;;;;;;;;;1.30;99.90;;;;;;5036583;28;20338;-86
2022/01/08 03:04:15;;;;;;;;;;;1.30;99.90;;;;;;5052870;28;20017;-86
2022/01/08 03:06:41;;;;;;;;;;;1.30;99.90;;;;;;5036487;28;19916;-87
2022/01/08 03:09:06;;;;;;;;;;;1.20;99.90;;;;;;5036821;28;19991;-87
2022/01/08 03:11:32;;;;;;;;;;;1.20;99.90;;;;;;5038147;28;19913;-88
2022/01/08 03:13:57;;;;;;;;;;;1.20;99.90;;;;;;5038430;28;19912;-87
2022/01/08 03:16:23;;;;;;;;;;;1.20;99.90;;;;;;5036856;28;20012;-87
2022/01/08 03:18:49;;;;;;;;;;;1.30;99.90;;;;;;5036602;28;19919;-87
2022/01/08 03:21:18;;;;;;;;;;;1.30;99.90;;;;;;5035719;28;20275;-87
2022/01/08 03:23:51;;;;;;;;;;;1.30;99.90;;;;;;5034761;28;19916;-87
2022/01/08 03:26:17;;;;;;;;;;;1.20;99.90;;;;;;5041232;28;20406;-86
2022/01/08 03:28:43;;;;;;;;;;;1.20;99.90;;;;;;5053585;28;19952;-87
2022/01/08 03:31:08;;;;;;;;;;;1.20;99.90;;;;;;5033502;28;19955;-87
2022/01/08 03:33:34;;;;;;;;;;;1.20;99.90;;;;;;5037364;28;19913;-84
2022/01/08 03:35:59;;;;;;;;;;;1.30;99.90;;;;;;5034930;28;20015;-88
2022/01/08 03:38:25;;;;;;;;;;;1.30;99.90;;;;;;5036977;28;19913;-86
2022/01/08 03:40:50;;;;;;;;;;;1.30;99.90;;;;;;5035541;28;19919;-87
2022/01/08 03:43:16;;;;;;;;;;;1.30;99.90;;;;;;5037238;28;19916;-87
2022/01/08 03:45:41;;;;;;;;;;;1.20;99.90;;;;;;5033176;28;19909;-86
2022/01/08 03:48:28;;;;;;;;;;;1.50;99.90;;;;;;5033920;28;19915;-87
2022/01/08 03:50:54;;;;;;;;;;;1.40;99.90;;;;;;5036082;28;20016;-88
2022/01/08 03:53:20;;;;;;;;;;;1.30;99.90;;;;;;5051440;28;20420;-87
2022/01/08 03:55:45;;;;;;;;;;;1.30;99.90;;;;;;5048426;28;20037;-86
2022/01/08 03:58:11;;;;;;;;;;;1.10;99.90;;;;;;5036398;28;19974;-87
2022/01/08 04:00:36;;;;;;;;;;;1.10;99.90;;;;;;5050989;28;19919;-86
2022/01/08 04:03:02;;;;;;;;;;;1.00;99.90;;;;;;5032021;28;20000;-87
2022/01/08 04:05:28;;;;;;;;;;;1.00;99.90;;;;;;5036194;28;20006;-87
2022/01/08 04:07:53;;;;;;;;;;;1.00;99.90;;;;;;5035858;28;19908;-86
2022/01/08 04:10:19;;;;;;;;;;;1.00;99.90;;;;;;5030886;28;19908;-87
2022/01/08 04:12:52;;;;;;;;;;;1.00;99.90;;;;;;5037838;28;19995;-86
2022/01/08 04:17:50;;;;;;;;;;;0.90;99.90;;;;;;5051804;28;19913;-85
2022/01/08 04:20:17;;;;;;;;;;;1.00;99.90;;;;;;5047645;28;20277;-86
2022/01/08 04:22:44;;;;;;;;;;;1.00;99.90;;;;;;5037581;28;19909;-87
2022/01/08 04:25:10;;;;;;;;;;;1.00;99.90;;;;;;5036129;28;19916;-86
2022/01/08 04:27:36;;;;;;;;;;;1.00;99.90;;;;;;5033383;28;19916;-86
2022/01/08 04:30:02;;;;;;;;;;;1.00;99.90;;;;;;5036929;28;19924;-86
2022/01/08 04:32:27;;;;;;;;;;;1.10;99.90;;;;;;5049690;28;20023;-86
2022/01/08 04:34:53;;;;;;;;;;;1.10;99.90;;;;;;5037194;28;19908;-87
2022/01/08 04:37:19;;;;;;;;;;;1.10;99.90;;;;;;5050371;28;20291;-86
2022/01/08 04:39:45;;;;;;;;;;;1.10;99.90;;;;;;5038059;28;19940;-87
2022/01/08 04:42:10;;;;;;;;;;;1.10;99.90;;;;;;5032637;28;20310;-87
2022/01/08 04:44:36;;;;;;;;;;;1.10;99.90;;;;;;5035737;28;19917;-87
2022/01/08 04:47:01;;;;;;;;;;;1.10;99.90;;;;;;5032506;28;19912;-86
2022/01/08 04:49:27;;;;;;;;;;;1.10;99.90;;;;;;5035772;28;19912;-87
2022/01/08 04:51:53;;;;;;;;;;;1.10;99.90;;;;;;5049630;28;19920;-88
2022/01/08 04:54:19;;;;;;;;;;;1.10;99.90;;;;;;5034666;28;19909;-87
2022/01/08 04:56:47;;;;;;;;;;;1.20;99.90;;;;;;5034422;28;19920;-87
2022/01/08 04:59:12;;;;;;;;;;;1.20;99.90;;;;;;5049080;28;19915;-87
2022/01/08 05:01:38;;;;;;;;;;;1.20;99.90;;;;;;5051542;28;20572;-88
2022/01/08 05:04:03;;;;;;;;;;;1.20;99.90;;;;;;5036791;28;20368;-86
2022/01/08 05:06:29;;;;;;;;;;;1.20;99.90;;;;;;5034459;28;19913;-87
2022/01/08 05:08:54;;;;;;;;;;;1.20;99.90;;;;;;5034222;28;19985;-87
2022/01/08 05:11:20;;;;;;;;;;;1.20;99.90;;;;;;5050591;28;19955;-86
2022/01/08 05:13:45;;;;;;;;;;;1.20;99.90;;;;;;5035104;28;19958;-87
2022/01/08 05:16:11;;;;;;;;;;;1.20;99.90;;;;;;5050955;28;20451;-86
2022/01/08 05:18:37;;;;;;;;;;;1.20;99.90;;;;;;5040264;28;19955;-86
2022/01/08 05:21:22;;;;;;;;;;;1.20;99.90;;;;;;5038514;28;19928;-86
2022/01/08 05:23:48;;;;;;;;;;;1.20;99.90;;;;;;5038640;28;19920;-86
2022/01/08 05:26:13;;;;;;;;;;;1.20;99.90;;;;;;5038356;28;19909;-87
2022/01/08 05:28:39;;;;;;;;;;;1.20;99.90;;;;;;5045861;28;19908;-87
2022/01/08 05:31:04;;;;;;;;;;;1.20;99.90;;;;;;5038561;28;19916;-85
2022/01/08 05:33:30;;;;;;;;;;;1.20;99.90;;;;;;5053641;28;19919;-88
2022/01/08 05:35:55;;;;;;;;;;;1.20;99.90;;;;;;5036840;28;19919;-87
2022/01/08 05:38:21;;;;;;;;;;;1.10;99.90;;;;;;5052595;28;19948;-87
2022/01/08 05:40:46;;;;;;;;;;;1.10;99.90;;;;;;5037271;28;19978;-87
2022/01/08 05:43:12;;;;;;;;;;;1.10;99.90;;;;;;5039210;28;19916;-87
2022/01/08 05:45:37;;;;;;;;;;;1.00;99.90;;;;;;5051534;28;19913;-87
2022/01/08 05:48:04;;;;;;;;;;;1.00;99.90;;;;;;5036324;28;19909;-86
2022/01/08 05:50:29;;;;;;;;;;;1.00;99.90;;;;;;5051302;28;19912;-87
2022/01/08 05:52:55;;;;;;;;;;;0.90;99.90;;;;;;5050916;28;19913;-87
2022/01/08 05:55:20;;;;;;;;;;;0.90;99.90;;;;;;5035060;28;19912;-88
2022/01/08 05:57:45;;;;;;;;;;;0.90;99.90;;;;;;5037367;28;20510;-88
2022/01/08 06:00:14;;;;;;;;;;;0.80;99.90;;;;;;5052656;28;20367;-89
2022/01/08 06:02:39;;;;;;;;;;;0.80;99.90;;;;;;5054526;28;19909;-89
2022/01/08 06:05:06;;;;;;;;;;;0.80;99.90;;;;;;5055841;28;19915;-88
2022/01/08 06:07:32;;;;;;;;;;;0.80;99.90;;;;;;5038907;28;19913;-87
2022/01/08 06:09:57;;;;;;;;;;;0.80;99.90;;;;;;5056132;28;19919;-88
2022/01/08 06:12:23;;;;;;;;;;;0.90;99.90;;;;;;5052358;28;20540;-89
2022/01/08 06:14:48;;;;;;;;;;;0.90;99.90;;;;;;5037958;28;19985;-88
2022/01/08 06:17:14;;;;;;;;;;;0.90;99.90;;;;;;5036979;28;19957;-87
2022/01/08 06:19:39;;;;;;;;;;;1.00;99.90;;;;;;5036725;28;19920;-88
2022/01/08 06:22:05;;;;;;;;;;;1.00;99.90;;;;;;5049168;28;19916;-86
2022/01/08 06:24:30;;;;;;;;;;;1.00;99.90;;;;;;5041893;28;19917;-88
2022/01/08 06:26:56;;;;;;;;;;;1.00;99.90;;;;;;5039283;28;20333;-87
2022/01/08 06:29:21;;;;;;;;;;;1.00;99.90;;;;;;5038904;28;20031;-87
2022/01/08 06:31:47;;;;;;;;;;;1.00;99.90;;;;;;5037231;28;19920;-87
2022/01/08 06:34:12;;;;;;;;;;;1.00;99.90;;;;;;5035933;28;19916;-88
2022/01/08 06:36:38;;;;;;;;;;;1.00;99.90;;;;;;5049982;28;19913;-88
2022/01/08 06:39:03;;;;;;;;;;;0.90;99.90;;;;;;5037056;28;19919;-87
2022/01/08 06:41:29;;;;;;;;;;;0.80;99.90;;;;;;5036305;28;19913;-86
2022/01/08 06:43:58;;;;;;;;;;;0.90;99.90;;;;;;5047499;28;19970;-86
2022/01/08 06:46:24;;;;;;;;;;;0.80;99.90;;;;;;5043627;28;19916;-87
2022/01/08 06:48:52;;;;;;;;;;;0.90;99.90;;;;;;5038962;28;19920;-87
2022/01/08 06:51:17;;;;;;;;;;;0.90;99.90;;;;;;5037841;28;19917;-87
2022/01/08 06:53:43;;;;;;;;;;;0.90;99.90;;;;;;5036885;28;19919;-86
2022/01/08 06:56:08;;;;;;;;;;;0.90;99.90;;;;;;5014335;28;20269;-86
2022/01/08 06:58:36;;;;;;;;;;;1.00;99.90;;;;;;5007671;28;19948;-86
2022/01/08 07:01:15;;;;;;;;;;;;;;;;;;;;;
2022/01/08 07:03:40;;;;;;;;;;;1.10;99.90;;;;;;5031975;28;20531;-88
2022/01/08 07:06:06;;;;;;;;;;;1.10;99.90;;;;;;5027055;28;19919;-88
2022/01/08 07:08:31;;;;;;;;;;;1.10;99.90;;;;;;5028817;28;20310;-89
2022/01/08 07:10:57;;;;;;;;;;;1.10;99.90;;;;;;5053499;28;20003;-88
2022/01/08 07:13:30;;;;;;;;;;;1.10;99.90;;;;;;5040145;28;20000;-89
2022/01/08 07:15:59;;;;;;;;;;;1.20;99.90;;;;;;5016743;28;20303;-90
2022/01/08 07:18:24;;;;;;;;;;;1.20;99.90;;;;;;5031498;28;20405;-89
2022/01/08 07:20:50;;;;;;;;;;;1.10;99.90;;;;;;5035074;28;19920;-91
2022/01/08 07:23:16;;;;;;;;;;;1.10;99.90;;;;;;5033617;28;20475;-90
2022/01/08 07:25:41;;;;;;;;;;;1.00;99.90;;;;;;5034276;28;20082;-89
2022/01/08 07:28:07;;;;;;;;;;;1.10;99.90;;;;;;5034122;28;19942;-87
2022/01/08 07:30:35;;;;;;;;;;;1.10;99.90;;;;;;5024004;28;19917;-89
2022/01/08 07:33:03;;;;;;;;;;;1.10;99.90;;;;;;5033658;28;19936;-89
2022/01/08 07:35:29;;;;;;;;;;;1.00;99.90;;;;;;5033194;28;23063;-89
2022/01/08 07:37:54;;;;;;;;;;;1.00;99.90;;;;;;5035120;28;19924;-89
2022/01/08 07:40:20;;;;;;;;;;;1.00;99.90;;;;;;5034517;28;19966;-87
2022/01/08 07:42:46;;;;;;;;;;;1.00;99.90;;;;;;5033691;28;20435;-88
2022/01/08 07:45:12;;;;;;;;;;;1.00;99.90;;;;;;5033168;28;19994;-88
2022/01/08 07:47:37;;;;;;;;;;;0.90;99.90;;;;;;5036888;28;20456;-88
2022/01/08 07:50:04;;;;;;;;;;;0.90;99.90;;;;;;5035405;28;19920;-89
2022/01/08 07:52:30;;;;;;;;;;;0.90;99.90;;;;;;5028640;28;19935;-90
2022/01/08 07:54:55;;;;;;;;;;;0.90;99.90;;;;;;5031675;28;19909;-90
2022/01/08 07:57:21;;;;;;;;;;;0.80;99.90;;;;;;5032891;28;19913;-90
2022/01/08 07:59:47;;;;;;;;;;;0.80;99.90;;;;;;5048797;28;19917;-90
2022/01/08 08:02:12;;;;;;;;;;;0.80;99.90;;;;;;5029777;28;19913;-89
2022/01/08 08:04:38;;;;;;;;;;;0.90;99.90;;;;;;5033366;28;19917;-89
2022/01/08 08:07:04;;;;;;;;;;;0.90;99.90;;;;;;5033824;28;20004;-90
2022/01/08 08:09:32;;;;;;;;;;;0.90;99.90;;;;;;5033785;28;20807;-89
2022/01/08 08:12:04;;;;;;;;;;;0.90;99.90;;;;;;5031188;28;19920;-89
2022/01/08 08:14:33;;;;;;;;;;;0.90;99.90;;;;;;5033613;28;19913;-89
2022/01/08 08:16:58;;;;;;;;;;;1.00;99.90;;;;;;5033560;28;19964;-90
2022/01/08 08:19:24;;;;;;;;;;;0.90;99.90;;;;;;5034568;28;19967;-89
2022/01/08 08:21:49;;;;;;;;;;;1.00;99.90;;;;;;5033934;28;19995;-89
2022/01/08 08:24:18;;;;;;;;;;;1.00;99.90;;;;;;5041643;28;20541;-89
2022/01/08 08:26:44;;;;;;;;;;;1.00;99.90;;;;;;5048571;28;19909;-90
2022/01/08 08:29:10;;;;;;;;;;;1.00;99.90;;;;;;5035055;28;20350;-89
2022/01/08 08:31:35;;;;;;;;;;;1.00;99.90;;;;;;5056954;28;20404;-89
2022/01/08 08:34:01;;;;;;;;;;;1.10;99.90;;;;;;5041406;28;19919;-91
2022/01/08 08:36:27;;;;;;;;;;;1.10;99.90;;;;;;5033901;28;19956;-89
2022/01/08 08:38:52;;;;;;;;;;;1.10;99.90;;;;;;5037936;28;20351;-88
2022/01/08 08:41:17;;;;;;;;;;;1.10;99.90;;;;;;5033956;28;19913;-88
2022/01/08 08:43:43;;;;;;;;;;;1.10;99.90;;;;;;5034967;28;19916;-89
2022/01/08 08:46:08;;;;;;;;;;;1.20;99.90;;;;;;5036893;28;20410;-89
2022/01/08 08:48:34;;;;;;;;;;;1.20;99.90;;;;;;5038165;28;19916;-89
2022/01/08 08:54:46;;;;;;;;;;;;;;;;;;;;;
2022/01/08 09:19:04;;;;;;;;;;;1.60;99.90;;;;;;4834890;29;19973;-88
2022/01/08 09:21:30;;;;;;;;;;;1.80;99.90;;;;;;4889472;28;19922;-89
2022/01/08 09:23:58;;;;;;;;;;;1.80;99.90;;;;;;4926399;28;19933;-89
2022/01/08 09:26:23;;;;;;;;;;;1.70;99.90;;;;;;4905303;28;19939;-88
2022/01/08 09:44:44;;;;;;;;;;;1.90;99.90;;;;;;4821008;29;20369;-90
2022/01/08 09:47:13;;;;;;;;;;;2.00;99.90;;;;;;4821108;29;20747;-89
2022/01/08 09:49:40;;;;;;;;;;;2.00;99.90;;;;;;4924320;28;20140;-89
2022/01/08 09:52:05;;;;;;;;;;;2.00;99.90;;;;;;5001844;28;20021;-88
2022/01/08 10:04:24;;;;;;;;;;;1.90;99.90;;;;;;4810580;29;19967;-90
2022/01/08 10:07:09;;;;;;;;;;;1.80;99.90;;;;;;4842765;29;19944;-89
2022/01/08 10:22:14;;;;;;;;;;;1.50;99.90;;;;;;4860045;29;20334;-90
2022/01/08 10:24:39;;;;;;;;;;;1.50;99.90;;;;;;4869879;29;20434;-90
2022/01/08 10:27:07;;;;;;;;;;;1.50;99.90;;;;;;4879493;29;19998;-88
2022/01/08 10:33:00;;;;;;;;;;;1.60;99.90;;;;;;4876658;29;20013;-89
2022/01/08 10:35:45;;;;;;;;;;;1.70;99.90;;;;;;4897911;29;19974;-89
2022/01/08 10:38:11;;;;;;;;;;;1.70;99.90;;;;;;4982136;28;20663;-88
2022/01/08 10:40:36;;;;;;;;;;;1.80;99.90;;;;;;4981834;28;19914;-89
2022/01/08 10:43:02;;;;;;;;;;;1.90;99.90;;;;;;4984049;28;19945;-89
2022/01/08 10:45:35;;;;;;;;;;;2.10;99.90;;;;;;4974145;28;19914;-89
2022/01/08 11:57:24;;;;;;;;;;;3.20;99.90;;;;;;6115573;22;1986656;-89
2022/01/08 11:59:56;;;;;;;;;;;3.20;99.90;;;;;;6211722;23;19916;-89
2022/01/08 12:02:32;;;;;;;;;;;3.20;99.90;;;;;;6209411;23;19908;-89
2022/01/08 12:05:00;;;;;;;;;;;3.20;99.90;;;;;;6209667;23;19939;-90
2022/01/08 12:07:38;;;;;;;;;;;3.20;99.90;;;;;;6209436;23;19920;-89
2022/01/08 12:10:18;;;;;;;;;;;3.10;99.90;;;;;;6209838;23;19967;-88
2022/01/08 12:12:49;;;;;;;;;;;3.10;99.90;;;;;;6199239;23;20347;-89
2022/01/08 12:15:18;;;;;;;;;;;3.10;99.90;;;;;;6208989;23;20324;-89
2022/01/08 12:17:55;;;;;;;;;;;3.10;99.90;;;;;;6196059;23;20340;-89
2022/01/08 12:20:42;;;;;;;;;;;3.10;99.90;;;;;;6210029;23;19987;-89
2022/01/08 12:23:26;;;;;;;;;;;3.10;99.90;;;;;;6206362;23;20074;-89
2022/01/08 12:25:52;;;;;;;;;;;3.00;99.90;;;;;;6194016;23;20316;-89
2022/01/08 12:28:38;;;;;;;;;;;3.00;99.90;;;;;;6209518;23;19919;-89
2022/01/08 12:31:23;;;;;;;;;;;3.40;99.90;;;;;;6206261;23;19915;-89
2022/01/08 12:34:07;;;;;;;;;;;4.00;99.90;;;;;;6209812;23;19983;-89
2022/01/08 12:36:36;;;;;;;;;;;4.50;99.90;;;;;;6204823;23;19916;-89
2022/01/08 12:39:03;;;;;;;;;;;5.50;99.90;;;;;;6132423;23;20300;-89
2022/01/08 12:41:29;;;;;;;;;;;6.10;99.90;;;;;;6173919;23;19944;-89
2022/01/08 12:44:17;;;;;;;;;;;6.10;99.90;;;;;;6163004;23;19963;-89
2022/01/08 12:46:45;;;;;;;;;;;5.80;99.90;;;;;;6154750;23;20369;-89
2022/01/08 12:49:12;;;;;;;;;;;5.20;99.90;;;;;;6170355;23;19917;-88
2022/01/08 12:51:49;;;;;;;;;;;5.20;99.90;;;;;;6135147;23;20312;-89
2022/01/08 12:54:19;;;;;;;;;;;5.00;99.90;;;;;;6158064;23;20013;-88
2022/01/08 12:56:46;;;;;;;;;;;4.60;99.90;;;;;;6157229;23;19924;-88
2022/01/08 12:59:11;;;;;;;;;;;4.50;99.90;;;;;;6171703;23;20291;-88
2022/01/08 13:01:39;;;;;;;;;;;4.30;99.90;;;;;;6170951;23;19986;-88
2022/01/08 13:04:09;;;;;;;;;;;4.30;99.90;;;;;;6172960;23;19967;-88
2022/01/08 13:06:36;;;;;;;;;;;4.10;99.90;;;;;;6163077;23;19987;-88
2022/01/08 13:09:03;;;;;;;;;;;4.00;99.90;;;;;;6120750;23;20481;-88
2022/01/08 13:11:32;;;;;;;;;;;3.90;99.90;;;;;;6160263;23;19947;-88
2022/01/08 13:13:59;;;;;;;;;;;3.70;99.90;;;;;;6171839;23;19939;-88
2022/01/08 13:16:27;;;;;;;;;;;3.60;99.90;;;;;;6156796;23;19909;-88
2022/01/08 13:18:54;;;;;;;;;;;3.50;99.90;;;;;;6172449;23;19919;-88
2022/01/08 13:21:24;;;;;;;;;;;3.40;99.90;;;;;;6157836;23;19912;-89
2022/01/08 13:23:51;;;;;;;;;;;3.40;99.90;;;;;;6171810;23;19988;-88
2022/01/08 13:26:25;;;;;;;;;;;3.30;99.90;;;;;;6171636;23;19916;-87
2022/01/08 13:28:54;;;;;;;;;;;3.30;99.90;;;;;;6159587;23;19984;-88
2022/01/08 13:31:20;;;;;;;;;;;3.20;99.90;;;;;;6170633;23;19919;-89
2022/01/08 13:33:55;;;;;;;;;;;3.20;99.90;;;;;;6151067;23;20356;-88
2022/01/08 13:36:21;;;;;;;;;;;3.20;99.90;;;;;;6171294;23;19909;-88
2022/01/08 13:38:46;;;;;;;;;;;3.10;99.90;;;;;;6172858;23;19919;-88
2022/01/08 13:45:13;;;;;;;;;;;;;;;;;;;;;
2022/01/08 14:07:10;;;;;;;;;;;3.00;99.90;;;;;;6016045;23;19917;-88
2022/01/08 14:13:18;;;;;;;;;;;2.90;99.90;;;;;;6057571;23;19913;-88
2022/01/08 14:19:44;;;;;;;;;;;2.90;99.90;;;;;;5934259;23;19977;-88
2022/01/08 14:22:21;;;;;;;;;;;2.90;99.90;;;;;;6031502;23;20067;-87
2022/01/08 14:32:16;;;;;;;;;;;;;;;;;;;;;
2022/01/08 14:35:07;;;;;;;;;;;2.90;99.90;;;;;;5885627;24;20613;-87
2022/01/08 14:37:36;;;;;;;;;;;2.90;99.90;;;;;;5831522;24;19941;-85
2022/01/08 14:40:22;;;;;;;;;;;2.80;99.90;;;;;;5889207;23;20368;-86
2022/01/08 14:43:16;;;;;;;;;;;2.80;99.90;;;;;;5898671;24;20337;-86
2022/01/08 14:46:07;;;;;;;;;;;2.80;99.90;;;;;;5862461;23;19934;-87
2022/01/08 14:49:03;;;;;;;;;;;2.90;99.90;;;;;;5865739;24;19922;-86
2022/01/08 14:51:40;;;;;;;;;;;2.80;99.90;;;;;;5898885;23;19923;-86
2022/01/08 14:54:15;;;;;;;;;;;2.80;99.90;;;;;;5873503;24;19941;-87
2022/01/08 14:56:58;;;;;;;;;;;2.80;99.90;;;;;;5855149;24;20043;-86
2022/01/08 15:03:07;;;;;;;;;;;3.70;99.90;;;;;;6037447;23;19921;-88
2022/01/08 15:27:40;;;;;;;;;;;2.80;99.90;;;;;;5668214;25;19981;-89
2022/01/08 15:30:05;;;;;;;;;;;2.90;99.90;;;;;;5682505;25;19923;-88
2022/01/08 15:32:34;;;;;;;;;;;2.80;99.90;;;;;;5701786;24;19985;-88
2022/01/08 15:35:00;;;;;;;;;;;2.80;99.90;;;;;;5710572;24;20045;-89
2022/01/08 15:37:26;;;;;;;;;;;2.80;99.90;;;;;;5706998;24;19925;-87
2022/01/08 15:39:52;;;;;;;;;;;2.80;99.90;;;;;;5759668;24;19939;-88
2022/01/08 15:42:17;;;;;;;;;;;2.80;99.90;;;;;;5940151;24;20336;-88
2022/01/08 15:44:44;;;;;;;;;;;2.80;99.90;;;;;;5939702;24;19918;-88
2022/01/08 15:47:13;;;;;;;;;;;2.80;99.90;;;;;;5937830;24;20417;-88
2022/01/08 15:49:38;;;;;;;;;;;2.80;99.90;;;;;;5940178;24;20387;-88
2022/01/08 15:52:04;;;;;;;;;;;2.80;99.90;;;;;;6001150;23;19930;-88
2022/01/08 15:54:29;;;;;;;;;;;2.80;99.90;;;;;;6057828;23;20330;-88
2022/01/08 15:56:59;;;;;;;;;;;2.80;99.90;;;;;;6043305;23;19910;-88
2022/01/08 15:59:28;;;;;;;;;;;2.80;99.90;;;;;;6102003;23;19908;-88
2022/01/08 16:02:05;;;;;;;;;;;2.80;99.90;;;;;;6178145;23;19974;-88
2022/01/08 16:04:42;;;;;;;;;;;2.70;99.90;;;;;;6160980;23;19909;-88
2022/01/08 16:07:07;;;;;;;;;;;2.80;99.90;;;;;;6175010;23;19939;-88
2022/01/08 16:09:33;;;;;;;;;;;2.80;99.90;;;;;;6176848;23;20230;-89
2022/01/08 16:11:59;;;;;;;;;;;2.70;99.90;;;;;;6175157;23;19955;-89
2022/01/08 16:14:24;;;;;;;;;;;2.70;99.90;;;;;;6175658;23;20039;-88
2022/01/08 16:16:50;;;;;;;;;;;2.70;99.90;;;;;;6177184;23;19946;-88
2022/01/08 16:19:15;;;;;;;;;;;2.70;99.90;;;;;;6177546;23;19994;-88
2022/01/08 16:21:41;;;;;;;;;;;2.70;99.90;;;;;;6204446;23;19912;-89
2022/01/08 16:24:07;;;;;;;;;;;2.70;99.90;;;;;;6178091;23;19944;-88
2022/01/08 16:26:33;;;;;;;;;;;2.70;99.90;;;;;;6179142;23;19912;-88
2022/01/08 16:28:58;;;;;;;;;;;2.70;99.90;;;;;;6179336;23;19911;-89
2022/01/08 16:31:26;;;;;;;;;;;2.70;99.90;;;;;;6178286;23;19912;-89
2022/01/08 16:33:52;;;;;;;;;;;2.70;99.90;;;;;;6177750;23;19954;-89
2022/01/08 17:24:47;;;;;;;;;;;2.70;99.90;;;;;;6146636;23;19924;-87
2022/01/08 17:27:14;;;;;;;;;;;2.60;99.90;;;;;;6142341;23;19916;-87
2022/01/08 17:29:43;;;;;;;;;;;2.70;99.90;;;;;;6140058;23;19913;-87
2022/01/08 17:32:11;;;;;;;;;;;2.60;99.90;;;;;;6142438;23;19920;-87
2022/01/08 17:34:37;;;;;;;;;;;2.70;99.90;;;;;;6143317;23;19912;-86
2022/01/08 17:42:13;;;;;;;;;;;2.60;99.90;;;;;;6143572;23;19920;-88
2022/01/08 17:44:39;;;;;;;;;;;2.70;99.90;;;;;;6148164;23;20369;-87
2022/01/08 17:47:05;;;;;;;;;;;2.70;99.90;;;;;;6148252;23;19912;-87
2022/01/08 17:49:32;;;;;;;;;;;2.60;99.90;;;;;;6175089;23;19916;-87
2022/01/08 17:52:02;;;;;;;;;;;2.60;99.90;;;;;;6172841;23;19963;-87
2022/01/08 17:54:28;;;;;;;;;;;2.60;99.90;;;;;;6147955;23;19916;-87
2022/01/08 17:56:53;;;;;;;;;;;2.60;99.90;;;;;;6139628;23;19909;-87
2022/01/08 17:59:19;;;;;;;;;;;2.60;99.90;;;;;;6148187;23;19959;-87
2022/01/08 18:01:44;;;;;;;;;;;2.60;99.90;;;;;;6146272;23;19912;-87
2022/01/08 18:04:10;;;;;;;;;;;2.60;99.90;;;;;;6173949;23;19963;-87
2022/01/08 18:06:35;;;;;;;;;;;2.60;99.90;;;;;;6147942;23;20074;-88
2022/01/08 18:09:01;;;;;;;;;;;2.60;99.90;;;;;;6174026;23;20338;-87
2022/01/08 18:11:37;;;;;;;;;;;2.60;99.90;;;;;;6132030;23;20251;-87
2022/01/08 18:14:03;;;;;;;;;;;2.60;99.90;;;;;;6134073;23;19917;-87
2022/01/08 18:16:43;;;;;;;;;;;;;;;;;;;;;
2022/01/08 18:19:09;;;;;;;;;;;2.60;99.90;;;;;;6146680;23;20971;-87
2022/01/08 18:21:35;;;;;;;;;;;2.60;99.90;;;;;;6168002;23;19908;-87
2022/01/08 18:24:02;;;;;;;;;;;2.50;99.90;;;;;;6144369;23;19912;-87
2022/01/08 18:26:28;;;;;;;;;;;2.50;99.90;;;;;;6156164;23;20333;-86
2022/01/08 18:28:54;;;;;;;;;;;2.40;99.90;;;;;;6147091;23;19912;-88
2022/01/08 18:31:19;;;;;;;;;;;2.30;99.90;;;;;;6169835;23;20336;-87
2022/01/08 18:33:45;;;;;;;;;;;2.30;99.90;;;;;;6157415;23;20539;-87
2022/01/08 18:36:12;;;;;;;;;;;2.30;99.90;;;;;;6147150;23;19975;-88
2022/01/08 18:38:45;;;;;;;;;;;2.30;99.90;;;;;;6155537;23;19948;-88
2022/01/08 18:41:11;;;;;;;;;;;2.20;99.90;;;;;;6145539;23;19944;-88
2022/01/08 18:43:39;;;;;;;;;;;2.20;99.90;;;;;;6132494;23;20352;-88
2022/01/08 18:46:08;;;;;;;;;;;2.20;99.90;;;;;;6128753;23;20532;-88
2022/01/08 18:48:42;;;;;;;;;;;2.10;99.90;;;;;;6129913;23;19916;-88
2022/01/08 18:51:08;;;;;;;;;;;2.10;99.90;;;;;;6091854;23;19920;-88
2022/01/08 18:53:34;;;;;;;;;;;2.00;99.90;;;;;;6146446;23;20330;-88
2022/01/08 18:55:59;;;;;;;;;;;2.00;99.90;;;;;;6128209;23;20325;-88
2022/01/08 18:58:25;;;;;;;;;;;2.00;99.90;;;;;;6130435;23;20256;-88
2022/01/08 19:00:54;;;;;;;;;;;2.00;99.90;;;;;;6127792;23;19916;-88
2022/01/08 19:03:22;;;;;;;;;;;2.00;99.90;;;;;;6143272;23;19980;-87
2022/01/08 19:06:11;;;;;;;;;;;1.90;99.90;;;;;;6129728;23;19912;-88
2022/01/08 19:08:36;;;;;;;;;;;1.90;99.90;;;;;;6169461;23;19913;-88
2022/01/08 19:11:03;;;;;;;;;;;1.90;99.90;;;;;;6146161;23;19916;-88